createdAt,value
2023-04-24T00:00:20.014Z,0.00
2023-04-24T00:01:19.995Z,0.00
2023-04-24T00:02:20.157Z,0.00
2023-04-24T00:03:20.218Z,0.00
2023-04-24T00:04:20.242Z,0.00
2023-04-24T00:05:19.998Z,0.00
2023-04-24T00:06:20.002Z,0.00
2023-04-24T00:07:19.991Z,0.00
2023-04-24T00:08:19.996Z,0.00
2023-04-24T00:09:19.994Z,0.00
2023-04-24T00:10:19.992Z,0.00
2023-04-24T00:11:19.992Z,0.00
2023-04-24T00:12:19.991Z,0.00
2023-04-24T00:13:19.996Z,0.00
2023-04-24T00:14:19.997Z,0.00
2023-04-24T00:15:19.984Z,0.00
2023-04-24T00:16:20.077Z,0.00
2023-04-24T00:17:19.990Z,0.00
2023-04-24T00:18:19.981Z,0.00
2023-04-24T00:19:20.055Z,0.00
2023-04-24T00:20:19.983Z,0.00
2023-04-24T00:21:19.978Z,0.00
2023-04-24T00:22:19.988Z,0.00
2023-04-24T00:23:19.976Z,0.00
2023-04-24T00:24:19.986Z,0.00
2023-04-24T00:25:19.973Z,0.00
2023-04-24T00:26:19.976Z,0.00
2023-04-24T00:27:19.978Z,0.00
2023-04-24T00:28:19.977Z,0.00
2023-04-24T00:29:19.976Z,0.00
2023-04-24T00:30:19.982Z,0.00
2023-04-24T00:31:20.020Z,0.00
2023-04-24T00:32:20.072Z,0.00
2023-04-24T00:33:19.967Z,0.00
2023-04-24T00:34:19.970Z,0.00
2023-04-24T00:35:19.990Z,0.00
2023-04-24T00:36:19.977Z,0.00
2023-04-24T00:37:19.976Z,0.00
2023-04-24T00:38:19.966Z,0.00
2023-04-24T00:39:19.955Z,0.00
2023-04-24T00:40:19.967Z,0.00
2023-04-24T00:41:20.006Z,0.00
2023-04-24T00:42:19.960Z,0.00
2023-04-24T00:43:19.962Z,0.00
2023-04-24T00:44:19.958Z,0.00
2023-04-24T00:45:19.970Z,0.00
2023-04-24T00:46:19.998Z,0.00
2023-04-24T00:47:19.969Z,0.00
2023-04-24T00:48:20.015Z,0.00
2023-04-24T00:49:19.959Z,0.00
2023-04-24T00:50:19.954Z,0.00
2023-04-24T00:51:19.970Z,0.00
2023-04-24T00:52:19.949Z,0.00
2023-04-24T00:53:19.947Z,0.00
2023-04-24T00:54:19.950Z,0.00
2023-04-24T00:55:19.944Z,0.00
2023-04-24T00:56:19.955Z,0.00
2023-04-24T00:57:19.946Z,0.00
2023-04-24T00:58:19.948Z,0.00
2023-04-24T00:59:19.937Z,0.00
2023-04-24T01:00:19.945Z,0.00
2023-04-24T01:01:19.970Z,0.00
2023-04-24T01:02:20.016Z,0.00
2023-04-24T01:03:20.167Z,0.00
2023-04-24T01:04:20.021Z,0.00
2023-04-24T01:05:19.948Z,0.00
2023-04-24T01:06:19.940Z,0.00
2023-04-24T01:07:19.970Z,0.00
2023-04-24T01:08:19.934Z,0.00
2023-04-24T01:09:19.933Z,0.00
2023-04-24T01:10:19.931Z,0.00
2023-04-24T01:11:19.932Z,0.00
2023-04-24T01:12:19.932Z,0.00
2023-04-24T01:13:19.927Z,0.00
2023-04-24T01:14:19.929Z,0.00
2023-04-24T01:15:19.925Z,0.00
2023-04-24T01:16:19.977Z,0.00
2023-04-24T01:17:19.947Z,0.00
2023-04-24T01:18:19.925Z,0.00
2023-04-24T01:19:19.930Z,0.00
2023-04-24T01:20:19.925Z,0.00
2023-04-24T01:21:19.920Z,0.00
2023-04-24T01:22:19.927Z,0.00
2023-04-24T01:23:19.932Z,0.00
2023-04-24T01:24:19.923Z,0.00
2023-04-24T01:25:19.922Z,0.00
2023-04-24T01:26:19.930Z,0.00
2023-04-24T01:27:19.916Z,0.00
2023-04-24T01:28:19.918Z,0.00
2023-04-24T01:29:20.236Z,0.00
2023-04-24T01:30:19.919Z,0.00
2023-04-24T01:31:19.995Z,0.00
2023-04-24T01:32:19.990Z,0.00
2023-04-24T01:33:19.911Z,0.00
2023-04-24T01:34:19.911Z,0.00
2023-04-24T01:35:19.919Z,0.00
2023-04-24T01:36:19.906Z,0.00
2023-04-24T01:37:19.916Z,0.00
2023-04-24T01:38:19.904Z,0.00
2023-04-24T01:39:19.943Z,0.00
2023-04-24T01:40:19.916Z,0.00
2023-04-24T01:41:19.899Z,0.00
2023-04-24T01:42:19.904Z,0.00
2023-04-24T01:43:19.915Z,0.00
2023-04-24T01:44:19.903Z,0.00
2023-04-24T01:45:19.912Z,0.00
2023-04-24T01:46:19.941Z,0.00
2023-04-24T01:47:19.889Z,0.00
2023-04-24T01:48:19.895Z,0.00
2023-04-24T01:49:19.893Z,0.00
2023-04-24T01:50:19.896Z,0.00
2023-04-24T01:51:19.887Z,0.00
2023-04-24T01:52:19.888Z,0.00
2023-04-24T01:53:19.889Z,0.00
2023-04-24T01:54:19.884Z,0.00
2023-04-24T01:55:19.913Z,0.00
2023-04-24T01:56:19.881Z,0.00
2023-04-24T01:57:19.882Z,0.00
2023-04-24T01:58:19.877Z,0.00
2023-04-24T01:59:19.887Z,0.00
2023-04-24T02:00:19.877Z,0.00
2023-04-24T02:01:20.000Z,0.00
2023-04-24T02:02:19.968Z,0.00
2023-04-24T02:03:20.087Z,0.00
2023-04-24T02:04:20.034Z,0.00
2023-04-24T02:05:19.893Z,0.00
2023-04-24T02:06:19.866Z,0.00
2023-04-24T02:07:19.869Z,0.00
2023-04-24T02:08:19.869Z,0.00
2023-04-24T02:09:19.871Z,0.00
2023-04-24T02:10:19.868Z,0.00
2023-04-24T02:11:19.892Z,0.00
2023-04-24T02:12:19.867Z,0.00
2023-04-24T02:13:19.870Z,0.00
2023-04-24T02:14:19.861Z,0.00
2023-04-24T02:15:19.863Z,0.00
2023-04-24T02:16:19.916Z,0.00
2023-04-24T02:17:19.942Z,0.00
2023-04-24T02:18:19.861Z,0.00
2023-04-24T02:19:19.858Z,0.00
2023-04-24T02:20:19.860Z,0.00
2023-04-24T02:21:19.858Z,0.00
2023-04-24T02:22:19.853Z,0.00
2023-04-24T02:23:19.857Z,0.00
2023-04-24T02:24:19.848Z,0.00
2023-04-24T02:25:19.848Z,0.00
2023-04-24T02:26:19.844Z,0.00
2023-04-24T02:27:19.867Z,0.00
2023-04-24T02:28:19.847Z,0.00
2023-04-24T02:29:19.847Z,0.00
2023-04-24T02:30:19.848Z,0.00
2023-04-24T02:31:19.900Z,0.00
2023-04-24T02:32:20.152Z,0.00
2023-04-24T02:33:19.838Z,0.00
2023-04-24T02:34:19.831Z,0.00
2023-04-24T02:35:19.875Z,0.00
2023-04-24T02:36:19.837Z,0.00
2023-04-24T02:37:19.848Z,0.00
2023-04-24T02:38:19.837Z,0.00
2023-04-24T02:39:19.839Z,0.00
2023-04-24T02:40:19.833Z,0.00
2023-04-24T02:41:19.826Z,0.00
2023-04-24T02:42:19.829Z,0.00
2023-04-24T02:43:19.855Z,0.00
2023-04-24T02:44:19.827Z,0.00
2023-04-24T02:45:19.830Z,0.00
2023-04-24T02:46:19.842Z,0.00
2023-04-24T02:47:19.871Z,0.00
2023-04-24T02:48:19.817Z,0.00
2023-04-24T02:49:19.823Z,0.00
2023-04-24T02:50:19.825Z,0.00
2023-04-24T02:51:19.820Z,0.00
2023-04-24T02:52:19.813Z,0.00
2023-04-24T02:53:19.824Z,0.00
2023-04-24T02:54:19.813Z,0.00
2023-04-24T02:55:19.817Z,0.00
2023-04-24T02:56:19.814Z,0.00
2023-04-24T02:57:19.809Z,0.00
2023-04-24T02:58:19.813Z,0.00
2023-04-24T02:59:19.831Z,0.00
2023-04-24T03:00:19.811Z,0.00
2023-04-24T03:01:19.885Z,0.00
2023-04-24T03:02:19.880Z,0.00
2023-04-24T03:03:19.871Z,0.00
2023-04-24T03:04:19.948Z,0.00
2023-04-24T03:05:19.806Z,0.00
2023-04-24T03:06:19.797Z,0.00
2023-04-24T03:07:19.806Z,0.00
2023-04-24T03:08:19.796Z,0.00
2023-04-24T03:09:19.804Z,0.00
2023-04-24T03:10:19.792Z,0.00
2023-04-24T03:11:19.793Z,0.00
2023-04-24T03:12:19.790Z,0.00
2023-04-24T03:13:19.791Z,0.00
2023-04-24T03:14:19.800Z,0.00
2023-04-24T03:15:19.891Z,0.00
2023-04-24T03:16:19.858Z,0.00
2023-04-24T03:17:19.793Z,0.00
2023-04-24T03:18:19.803Z,0.00
2023-04-24T03:19:19.786Z,0.00
2023-04-24T03:20:19.788Z,0.00
2023-04-24T03:21:19.788Z,0.00
2023-04-24T03:22:19.782Z,0.00
2023-04-24T03:23:19.794Z,0.00
2023-04-24T03:24:19.782Z,0.00
2023-04-24T03:25:19.786Z,0.00
2023-04-24T03:26:19.778Z,0.00
2023-04-24T03:27:19.785Z,0.00
2023-04-24T03:28:19.776Z,0.00
2023-04-24T03:29:19.782Z,0.00
2023-04-24T03:30:19.778Z,0.00
2023-04-24T03:31:19.825Z,0.00
2023-04-24T03:32:19.792Z,0.00
2023-04-24T03:33:19.773Z,0.00
2023-04-24T03:34:19.774Z,0.00
2023-04-24T03:35:19.772Z,0.00
2023-04-24T03:36:19.775Z,0.00
2023-04-24T03:37:19.776Z,0.00
2023-04-24T03:38:19.773Z,0.00
2023-04-24T03:39:19.777Z,0.00
2023-04-24T03:40:19.772Z,0.00
2023-04-24T03:41:19.765Z,0.00
2023-04-24T03:42:19.767Z,0.00
2023-04-24T03:43:19.762Z,0.00
2023-04-24T03:44:19.764Z,0.00
2023-04-24T03:45:19.764Z,0.00
2023-04-24T03:46:19.804Z,0.00
2023-04-24T03:47:19.785Z,0.00
2023-04-24T03:48:19.761Z,0.00
2023-04-24T03:49:19.773Z,0.00
2023-04-24T03:50:19.760Z,0.00
2023-04-24T03:51:19.765Z,0.00
2023-04-24T03:52:19.753Z,0.00
2023-04-24T03:53:19.754Z,0.00
2023-04-24T03:54:19.788Z,0.00
2023-04-24T03:55:19.757Z,0.00
2023-04-24T03:56:19.759Z,5.63
2023-04-24T03:57:19.756Z,5.63
2023-04-24T03:58:19.748Z,5.63
2023-04-24T03:59:19.758Z,5.63
2023-04-24T04:00:19.746Z,5.63
2023-04-24T04:01:19.751Z,5.63
2023-04-24T04:02:20.030Z,5.63
2023-04-24T04:03:20.019Z,5.63
2023-04-24T04:04:20.002Z,5.63
2023-04-24T04:05:19.805Z,5.63
2023-04-24T04:06:19.740Z,5.63
2023-04-24T04:07:19.750Z,5.63
2023-04-24T04:08:19.742Z,11.25
2023-04-24T04:09:19.744Z,11.25
2023-04-24T04:10:19.749Z,11.25
2023-04-24T04:11:19.741Z,11.25
2023-04-24T04:12:19.748Z,11.25
2023-04-24T04:13:19.741Z,11.25
2023-04-24T04:14:19.735Z,11.25
2023-04-24T04:15:19.753Z,11.25
2023-04-24T04:16:19.795Z,11.25
2023-04-24T04:17:19.735Z,16.88
2023-04-24T04:18:19.776Z,16.88
2023-04-24T04:19:19.757Z,16.88
2023-04-24T04:20:19.733Z,16.88
2023-04-24T04:21:19.737Z,16.88
2023-04-24T04:22:19.731Z,16.88
2023-04-24T04:23:19.731Z,16.88
2023-04-24T04:24:19.730Z,16.88
2023-04-24T04:25:19.735Z,16.88
2023-04-24T04:26:19.722Z,16.88
2023-04-24T04:27:19.727Z,16.88
2023-04-24T04:28:19.723Z,16.88
2023-04-24T04:29:19.727Z,22.50
2023-04-24T04:30:19.736Z,22.50
2023-04-24T04:31:19.737Z,28.13
2023-04-24T04:32:19.722Z,28.13
2023-04-24T04:33:19.721Z,28.13
2023-04-24T04:34:19.722Z,22.50
2023-04-24T04:35:19.754Z,22.50
2023-04-24T04:36:19.720Z,28.13
2023-04-24T04:37:19.720Z,28.13
2023-04-24T04:38:19.722Z,28.13
2023-04-24T04:39:19.719Z,28.13
2023-04-24T04:40:59.499Z,22.50
2023-04-24T04:41:59.536Z,22.50
2023-04-24T04:42:59.501Z,22.50
2023-04-24T04:43:59.500Z,22.50
2023-04-24T04:44:59.488Z,22.50
2023-04-24T04:45:59.535Z,22.50
2023-04-24T04:46:59.518Z,22.50
2023-04-24T04:47:59.502Z,22.50
2023-04-24T04:48:59.490Z,22.50
2023-04-24T04:49:59.477Z,28.13
2023-04-24T04:50:59.513Z,33.75
2023-04-24T04:51:59.490Z,33.75
2023-04-24T04:52:59.480Z,39.38
2023-04-24T04:53:59.487Z,45.00
2023-04-24T04:54:59.491Z,45.00
2023-04-24T04:55:59.497Z,39.38
2023-04-24T04:56:59.482Z,39.38
2023-04-24T04:57:59.484Z,39.38
2023-04-24T04:58:59.505Z,39.38
2023-04-24T04:59:59.511Z,45.00
2023-04-24T05:00:59.493Z,45.00
2023-04-24T05:01:59.481Z,39.38
2023-04-24T05:03:06.134Z,39.38
2023-04-24T05:03:59.777Z,45.00
2023-04-24T05:04:59.669Z,50.63
2023-04-24T05:05:59.481Z,56.25
2023-04-24T05:06:59.492Z,67.50
2023-04-24T05:07:59.474Z,84.38
2023-04-24T05:08:59.477Z,101.25
2023-04-24T05:09:59.478Z,118.13
2023-04-24T05:10:59.475Z,129.38
2023-04-24T05:11:59.467Z,135.00
2023-04-24T05:12:59.474Z,140.63
2023-04-24T05:13:59.474Z,140.63
2023-04-24T05:14:59.468Z,140.63
2023-04-24T05:15:59.473Z,135.00
2023-04-24T05:16:59.490Z,140.63
2023-04-24T05:17:59.507Z,129.38
2023-04-24T05:18:59.472Z,123.75
2023-04-24T05:19:59.464Z,118.13
2023-04-24T05:20:59.465Z,118.13
2023-04-24T05:21:59.471Z,118.13
2023-04-24T05:22:59.486Z,118.13
2023-04-24T05:23:59.463Z,123.75
2023-04-24T05:24:59.461Z,129.38
2023-04-24T05:25:59.460Z,129.38
2023-04-24T05:26:59.458Z,129.38
2023-04-24T05:27:59.472Z,129.38
2023-04-24T05:28:59.457Z,135.00
2023-04-24T05:29:59.454Z,140.63
2023-04-24T05:30:59.502Z,146.25
2023-04-24T05:31:59.452Z,146.25
2023-04-24T05:33:01.243Z,151.88
2023-04-24T05:33:59.477Z,157.50
2023-04-24T05:34:59.468Z,163.13
2023-04-24T05:35:59.473Z,163.13
2023-04-24T05:36:59.468Z,163.13
2023-04-24T05:37:59.454Z,163.13
2023-04-24T05:38:59.485Z,168.75
2023-04-24T05:39:59.452Z,168.75
2023-04-24T05:40:59.455Z,174.38
2023-04-24T05:41:59.443Z,174.38
2023-04-24T05:42:59.474Z,174.38
2023-04-24T05:43:59.454Z,180.00
2023-04-24T05:44:59.469Z,174.38
2023-04-24T05:45:59.487Z,174.38
2023-04-24T05:46:59.455Z,180.00
2023-04-24T05:47:59.462Z,185.63
2023-04-24T05:48:59.447Z,191.25
2023-04-24T05:49:59.443Z,185.63
2023-04-24T05:50:59.450Z,180.00
2023-04-24T05:51:59.449Z,180.00
2023-04-24T05:52:59.457Z,185.63
2023-04-24T05:53:59.443Z,180.00
2023-04-24T05:54:59.462Z,185.63
2023-04-24T05:55:59.444Z,191.25
2023-04-24T05:56:59.444Z,196.88
2023-04-24T05:57:59.450Z,213.75
2023-04-24T05:58:59.448Z,208.13
2023-04-24T05:59:59.445Z,202.50
2023-04-24T06:00:59.457Z,202.50
2023-04-24T06:01:59.508Z,196.88
2023-04-24T06:02:59.790Z,185.63
2023-04-24T06:03:59.603Z,174.38
2023-04-24T06:04:59.507Z,168.75
2023-04-24T06:05:59.448Z,163.13
2023-04-24T06:06:59.439Z,163.13
2023-04-24T06:07:59.437Z,168.75
2023-04-24T06:08:59.441Z,180.00
2023-04-24T06:09:59.430Z,185.63
2023-04-24T06:10:59.466Z,191.25
2023-04-24T06:11:59.437Z,191.25
2023-04-24T06:12:59.436Z,191.25
2023-04-24T06:13:59.431Z,196.88
2023-04-24T06:14:59.436Z,202.50
2023-04-24T06:15:59.480Z,208.13
2023-04-24T06:16:59.604Z,213.75
2023-04-24T06:17:59.469Z,213.75
2023-04-24T06:18:59.433Z,213.75
2023-04-24T06:19:59.433Z,219.38
2023-04-24T06:20:59.430Z,219.38
2023-04-24T06:21:59.427Z,225.00
2023-04-24T06:22:59.424Z,225.00
2023-04-24T06:23:59.432Z,230.63
2023-04-24T06:24:59.432Z,236.25
2023-04-24T06:25:59.427Z,241.88
2023-04-24T06:26:59.456Z,241.88
2023-04-24T06:27:59.427Z,247.50
2023-04-24T06:28:59.430Z,241.88
2023-04-24T06:29:59.421Z,230.63
2023-04-24T06:30:59.424Z,213.75
2023-04-24T06:31:59.479Z,202.50
2023-04-24T06:33:09.255Z,196.88
2023-04-24T06:33:59.418Z,185.63
2023-04-24T06:34:59.691Z,174.38
2023-04-24T06:35:59.419Z,163.13
2023-04-24T06:36:59.424Z,151.88
2023-04-24T06:37:59.418Z,151.88
2023-04-24T06:38:59.428Z,151.88
2023-04-24T06:39:59.419Z,151.88
2023-04-24T06:40:59.419Z,163.13
2023-04-24T06:41:59.451Z,174.38
2023-04-24T06:42:59.449Z,168.75
2023-04-24T06:43:59.420Z,185.63
2023-04-24T06:44:59.420Z,219.38
2023-04-24T06:45:59.427Z,230.63
2023-04-24T06:46:59.421Z,236.25
2023-04-24T06:47:59.438Z,241.88
2023-04-24T06:48:59.423Z,247.50
2023-04-24T06:49:59.418Z,253.13
2023-04-24T06:50:59.425Z,258.75
2023-04-24T06:51:59.412Z,253.13
2023-04-24T06:52:59.412Z,241.88
2023-04-24T06:53:59.415Z,258.75
2023-04-24T06:54:59.416Z,264.38
2023-04-24T06:55:59.418Z,270.00
2023-04-24T06:56:59.422Z,281.25
2023-04-24T06:57:59.413Z,286.88
2023-04-24T06:58:59.439Z,292.50
2023-04-24T06:59:59.421Z,286.88
2023-04-24T07:00:59.450Z,298.13
2023-04-24T07:01:59.464Z,298.13
2023-04-24T07:02:59.620Z,320.63
2023-04-24T07:03:59.484Z,326.25
2023-04-24T07:04:59.419Z,331.88
2023-04-24T07:05:59.415Z,348.75
2023-04-24T07:06:59.412Z,337.50
2023-04-24T07:07:59.412Z,365.63
2023-04-24T07:08:59.681Z,365.63
2023-04-24T07:09:59.424Z,382.50
2023-04-24T07:10:59.428Z,365.63
2023-04-24T07:11:59.434Z,326.25
2023-04-24T07:12:59.415Z,360.00
2023-04-24T07:13:59.443Z,393.75
2023-04-24T07:14:59.501Z,433.13
2023-04-24T07:15:59.446Z,450.00
2023-04-24T07:16:59.427Z,466.88
2023-04-24T07:17:59.492Z,461.25
2023-04-24T07:18:59.414Z,450.00
2023-04-24T07:19:59.413Z,416.25
2023-04-24T07:20:59.410Z,388.13
2023-04-24T07:21:59.422Z,360.00
2023-04-24T07:22:59.418Z,337.50
2023-04-24T07:23:59.410Z,331.88
2023-04-24T07:24:59.414Z,326.25
2023-04-24T07:25:59.438Z,331.88
2023-04-24T07:26:59.417Z,343.13
2023-04-24T07:27:59.423Z,360.00
2023-04-24T07:28:59.437Z,376.88
2023-04-24T07:29:59.420Z,405.00
2023-04-24T07:30:59.438Z,444.38
2023-04-24T07:32:01.007Z,444.38
2023-04-24T07:32:59.449Z,483.75
2023-04-24T07:33:59.414Z,506.25
2023-04-24T07:34:59.436Z,523.13
2023-04-24T07:35:59.423Z,540.00
2023-04-24T07:36:59.425Z,568.13
2023-04-24T07:37:59.418Z,573.75
2023-04-24T07:38:59.430Z,669.38
2023-04-24T07:39:59.423Z,523.13
2023-04-24T07:40:59.430Z,596.25
2023-04-24T07:41:59.429Z,855.00
2023-04-24T07:42:59.425Z,765.00
2023-04-24T07:43:59.451Z,967.50
2023-04-24T07:44:59.446Z,765.00
2023-04-24T07:45:59.480Z,630.00
2023-04-24T07:46:59.478Z,590.63
2023-04-24T07:47:59.457Z,579.38
2023-04-24T07:49:12.506Z,618.75
2023-04-24T07:49:59.436Z,607.50
2023-04-24T07:50:59.449Z,607.50
2023-04-24T07:51:59.488Z,641.25
2023-04-24T07:52:59.442Z,720.00
2023-04-24T07:53:59.448Z,725.63
2023-04-24T07:54:59.507Z,759.38
2023-04-24T07:55:59.447Z,765.00
2023-04-24T07:56:59.451Z,753.75
2023-04-24T07:57:59.447Z,675.00
2023-04-24T07:58:59.478Z,720.00
2023-04-24T07:59:59.458Z,2925.00
2023-04-24T08:00:59.461Z,3110.63
2023-04-24T08:01:59.460Z,3268.13
2023-04-24T08:02:59.606Z,3268.13
2023-04-24T08:03:59.632Z,3245.63
2023-04-24T08:05:00.525Z,3290.63
2023-04-24T08:05:59.535Z,2086.88
2023-04-24T08:06:59.476Z,1057.50
2023-04-24T08:07:59.475Z,855.00
2023-04-24T08:08:59.555Z,838.13
2023-04-24T08:09:59.480Z,759.38
2023-04-24T08:10:59.640Z,736.88
2023-04-24T08:11:59.490Z,770.63
2023-04-24T08:12:59.482Z,798.75
2023-04-24T08:13:59.486Z,826.88
2023-04-24T08:14:59.496Z,866.25
2023-04-24T08:15:59.508Z,995.63
2023-04-24T08:16:59.497Z,815.63
2023-04-24T08:17:59.543Z,731.25
2023-04-24T08:18:59.546Z,736.88
2023-04-24T08:19:59.515Z,765.00
2023-04-24T08:20:59.504Z,781.88
2023-04-24T08:21:59.509Z,826.88
2023-04-24T08:22:59.508Z,838.13
2023-04-24T08:23:59.517Z,838.13
2023-04-24T08:24:59.516Z,832.50
2023-04-24T08:25:59.514Z,866.25
2023-04-24T08:26:59.534Z,894.38
2023-04-24T08:27:59.532Z,911.25
2023-04-24T08:28:59.538Z,956.25
2023-04-24T08:29:59.544Z,894.38
2023-04-24T08:30:59.553Z,928.13
2023-04-24T08:31:59.655Z,888.75
2023-04-24T08:32:59.579Z,1243.13
2023-04-24T08:33:59.540Z,1276.88
2023-04-24T08:34:59.601Z,1732.50
2023-04-24T08:35:59.553Z,1861.88
2023-04-24T08:36:59.559Z,1591.88
2023-04-24T08:37:59.551Z,1535.63
2023-04-24T08:38:59.565Z,2289.38
2023-04-24T08:39:59.570Z,3099.38
2023-04-24T08:40:59.561Z,2413.13
2023-04-24T08:41:59.564Z,1856.25
2023-04-24T08:42:59.583Z,1591.88
2023-04-24T08:43:59.580Z,1282.50
2023-04-24T08:44:59.581Z,1175.63
2023-04-24T08:45:59.620Z,1080.00
2023-04-24T08:46:59.583Z,978.75
2023-04-24T08:47:59.655Z,916.88
2023-04-24T08:48:59.591Z,933.75
2023-04-24T08:49:59.598Z,810.00
2023-04-24T08:50:59.675Z,860.63
2023-04-24T08:51:59.601Z,725.63
2023-04-24T08:52:59.607Z,748.13
2023-04-24T08:53:59.612Z,742.50
2023-04-24T08:54:59.625Z,798.75
2023-04-24T08:55:59.623Z,860.63
2023-04-24T08:56:59.624Z,832.50
2023-04-24T08:57:59.630Z,939.38
2023-04-24T08:58:59.631Z,1147.50
2023-04-24T08:59:59.654Z,1018.13
2023-04-24T09:00:59.676Z,1147.50
2023-04-24T09:01:59.655Z,1203.75
2023-04-24T09:02:59.791Z,1209.38
2023-04-24T09:03:59.853Z,1237.50
2023-04-24T09:04:59.657Z,1226.25
2023-04-24T09:05:59.665Z,1153.13
2023-04-24T09:06:59.805Z,1175.63
2023-04-24T09:07:59.676Z,1226.25
2023-04-24T09:08:59.677Z,1321.88
2023-04-24T09:09:59.696Z,1428.75
2023-04-24T09:10:59.692Z,2413.13
2023-04-24T09:11:59.703Z,1591.88
2023-04-24T09:12:59.705Z,1091.25
2023-04-24T09:13:59.717Z,1040.63
2023-04-24T09:14:59.715Z,1310.63
2023-04-24T09:15:59.714Z,1102.50
2023-04-24T09:16:59.762Z,1108.13
2023-04-24T09:17:59.817Z,1400.63
2023-04-24T09:18:59.728Z,1023.75
2023-04-24T09:19:59.740Z,1153.13
2023-04-24T09:20:59.739Z,877.50
2023-04-24T09:21:59.749Z,1040.63
2023-04-24T09:22:59.812Z,843.75
2023-04-24T09:23:59.763Z,793.13
2023-04-24T09:24:59.761Z,770.63
2023-04-24T09:25:59.774Z,680.63
2023-04-24T09:26:59.816Z,568.13
2023-04-24T09:27:59.782Z,545.63
2023-04-24T09:28:59.794Z,1501.88
2023-04-24T09:29:59.792Z,568.13
2023-04-24T09:30:59.789Z,579.38
2023-04-24T09:31:59.835Z,590.63
2023-04-24T09:32:59.852Z,523.13
2023-04-24T09:34:02.027Z,461.25
2023-04-24T09:34:59.813Z,461.25
2023-04-24T09:35:59.821Z,534.38
2023-04-24T09:36:59.823Z,630.00
2023-04-24T09:37:59.834Z,770.63
2023-04-24T09:38:59.851Z,821.25
2023-04-24T09:39:59.845Z,815.63
2023-04-24T09:40:59.841Z,793.13
2023-04-24T09:41:59.848Z,658.13
2023-04-24T09:42:59.845Z,495.00
2023-04-24T09:43:59.908Z,393.75
2023-04-24T09:45:11.843Z,337.50
2023-04-24T09:45:59.885Z,309.38
2023-04-24T09:46:59.861Z,270.00
2023-04-24T09:47:59.912Z,225.00
2023-04-24T09:48:59.862Z,208.13
2023-04-24T09:49:59.870Z,213.75
2023-04-24T09:50:59.871Z,253.13
2023-04-24T09:51:59.886Z,281.25
2023-04-24T09:52:59.882Z,281.25
2023-04-24T09:53:59.888Z,270.00
2023-04-24T09:54:59.917Z,270.00
2023-04-24T09:55:59.895Z,281.25
2023-04-24T09:56:59.885Z,315.00
2023-04-24T09:57:59.897Z,393.75
2023-04-24T09:58:59.896Z,495.00
2023-04-24T09:59:59.901Z,596.25
2023-04-24T10:00:59.963Z,601.88
2023-04-24T10:02:00.203Z,680.63
2023-04-24T10:03:00.039Z,658.13
2023-04-24T10:03:59.917Z,630.00
2023-04-24T10:05:00.059Z,630.00
2023-04-24T10:05:59.941Z,596.25
2023-04-24T10:06:59.915Z,540.00
2023-04-24T10:07:59.920Z,545.63
2023-04-24T10:08:59.919Z,562.50
2023-04-24T10:09:59.940Z,540.00
2023-04-24T10:10:59.943Z,641.25
2023-04-24T10:11:59.929Z,961.88
2023-04-24T10:12:59.940Z,1068.75
2023-04-24T10:13:59.932Z,1164.38
2023-04-24T10:14:59.932Z,1198.13
2023-04-24T10:16:00.001Z,1316.25
2023-04-24T10:16:59.945Z,1029.38
2023-04-24T10:18:00.042Z,770.63
2023-04-24T10:18:59.941Z,663.75
2023-04-24T10:19:59.941Z,675.00
2023-04-24T10:20:59.942Z,781.88
2023-04-24T10:21:59.952Z,922.50
2023-04-24T10:22:59.954Z,736.88
2023-04-24T10:23:59.952Z,714.38
2023-04-24T10:24:59.952Z,759.38
2023-04-24T10:25:59.961Z,810.00
2023-04-24T10:26:59.975Z,939.38
2023-04-24T10:27:59.959Z,1018.13
2023-04-24T10:28:59.958Z,697.50
2023-04-24T10:29:59.965Z,551.25
2023-04-24T10:30:59.979Z,506.25
2023-04-24T10:31:59.968Z,495.00
2023-04-24T10:33:00.013Z,500.63
2023-04-24T10:33:59.973Z,556.88
2023-04-24T10:34:59.972Z,652.50
2023-04-24T10:35:59.979Z,759.38
2023-04-24T10:36:59.982Z,826.88
2023-04-24T10:37:59.991Z,888.75
2023-04-24T10:38:59.989Z,928.13
2023-04-24T10:39:59.984Z,843.75
2023-04-24T10:40:59.989Z,900.00
2023-04-24T10:41:59.989Z,1085.63
2023-04-24T10:43:00.146Z,1366.88
2023-04-24T10:43:59.993Z,1530.00
2023-04-24T10:44:59.987Z,1282.50
2023-04-24T10:45:59.994Z,1288.13
2023-04-24T10:47:00.035Z,1586.25
2023-04-24T10:48:00.068Z,1434.38
2023-04-24T10:48:59.997Z,1091.25
2023-04-24T10:50:00.002Z,787.50
2023-04-24T10:51:00.036Z,585.00
2023-04-24T10:52:00.006Z,573.75
2023-04-24T10:53:00.006Z,646.88
2023-04-24T10:54:00.021Z,787.50
2023-04-24T10:55:00.005Z,995.63
2023-04-24T10:56:00.033Z,1119.38
2023-04-24T10:57:00.012Z,922.50
2023-04-24T10:58:00.025Z,1158.75
2023-04-24T10:59:00.035Z,1771.88
2023-04-24T11:00:00.022Z,1704.38
2023-04-24T11:01:00.060Z,1620.00
2023-04-24T11:02:00.041Z,1428.75
2023-04-24T11:03:00.088Z,1485.00
2023-04-24T11:04:00.167Z,4460.63
2023-04-24T11:05:00.043Z,1417.50
2023-04-24T11:06:00.038Z,1563.75
2023-04-24T11:07:00.036Z,1485.00
2023-04-24T11:08:00.373Z,1231.88
2023-04-24T11:09:00.040Z,1102.50
2023-04-24T11:10:00.062Z,1468.13
2023-04-24T11:11:00.050Z,1569.38
2023-04-24T11:12:00.051Z,1473.75
2023-04-24T11:13:00.057Z,1361.25
2023-04-24T11:14:00.054Z,1445.63
2023-04-24T11:15:00.260Z,1963.13
2023-04-24T11:16:00.062Z,1440.00
2023-04-24T11:17:00.118Z,2390.63
2023-04-24T11:18:00.158Z,1766.25
2023-04-24T11:19:00.063Z,1850.63
2023-04-24T11:20:00.110Z,1524.38
2023-04-24T11:21:00.087Z,4235.63
2023-04-24T11:22:00.126Z,4916.25
2023-04-24T11:23:00.085Z,4725.00
2023-04-24T11:24:00.114Z,4421.25
2023-04-24T11:25:00.219Z,3706.88
2023-04-24T11:26:00.562Z,3301.88
2023-04-24T11:27:00.138Z,4145.63
2023-04-24T11:28:00.122Z,4798.13
2023-04-24T11:30:00.595Z,3031.88
2023-04-24T11:31:00.153Z,3448.13
2023-04-24T11:32:00.235Z,2981.25
2023-04-24T11:33:00.234Z,1974.38
2023-04-24T11:34:00.162Z,2604.38
2023-04-24T11:35:00.186Z,1788.75
2023-04-24T11:36:00.173Z,1580.63
2023-04-24T11:37:00.163Z,1440.00
2023-04-24T11:39:00.180Z,624.38
2023-04-24T11:40:00.994Z,478.13
2023-04-24T11:41:00.195Z,421.88
2023-04-24T11:42:00.209Z,360.00
2023-04-24T11:43:00.221Z,320.63
2023-04-24T11:44:00.221Z,281.25
2023-04-24T11:45:00.403Z,247.50
2023-04-24T11:46:00.261Z,230.63
2023-04-24T11:47:00.254Z,219.38
2023-04-24T11:48:00.328Z,219.38
2023-04-24T11:49:00.249Z,230.63
2023-04-24T11:50:00.795Z,241.88
2023-04-24T11:51:00.273Z,247.50
2023-04-24T11:52:01.224Z,225.00
2023-04-24T11:53:00.296Z,213.75
2023-04-24T11:54:04.570Z,213.75
2023-04-24T11:55:00.748Z,230.63
2023-04-24T11:56:00.294Z,298.13
2023-04-24T11:57:00.297Z,433.13
2023-04-24T11:58:00.422Z,798.75
2023-04-24T11:59:00.305Z,888.75
2023-04-24T12:00:00.794Z,1642.50
2023-04-24T12:01:00.309Z,1260.00
2023-04-24T12:02:00.356Z,1445.63
2023-04-24T12:03:00.443Z,2407.50
2023-04-24T12:04:00.737Z,1057.50
2023-04-24T12:05:00.624Z,933.75
2023-04-24T12:06:00.348Z,1046.25
2023-04-24T12:07:00.327Z,2385.00
2023-04-24T12:08:00.332Z,5776.88
2023-04-24T12:09:04.922Z,6963.75
2023-04-24T12:10:00.574Z,7458.75
2023-04-24T12:11:00.351Z,5445.00
2023-04-24T12:12:00.361Z,2913.75
2023-04-24T12:13:00.342Z,4241.25
2023-04-24T12:14:00.348Z,4786.88
2023-04-24T12:15:00.781Z,4100.63
2023-04-24T12:16:00.430Z,1400.63
2023-04-24T12:17:00.362Z,1428.75
2023-04-24T12:18:00.513Z,2345.63
2023-04-24T12:19:00.391Z,3943.13
2023-04-24T12:20:00.379Z,2401.88
2023-04-24T12:21:01.303Z,1051.88
2023-04-24T12:22:00.380Z,990.00
2023-04-24T12:23:00.398Z,2947.50
2023-04-24T12:24:00.398Z,3375.00
2023-04-24T12:25:00.390Z,3037.50
2023-04-24T12:26:00.399Z,2058.75
2023-04-24T12:27:00.408Z,1738.13
2023-04-24T12:28:00.411Z,1051.88
2023-04-24T12:29:00.415Z,843.75
2023-04-24T12:30:00.429Z,703.13
2023-04-24T12:31:00.440Z,618.75
2023-04-24T12:32:00.441Z,635.63
2023-04-24T12:33:00.454Z,810.00
2023-04-24T12:34:00.436Z,1091.25
2023-04-24T12:35:00.463Z,2953.13
2023-04-24T12:36:00.454Z,2272.50
2023-04-24T12:37:00.449Z,2795.63
2023-04-24T12:38:00.459Z,5917.50
2023-04-24T12:39:00.461Z,5158.13
2023-04-24T12:40:00.472Z,2351.25
2023-04-24T12:41:00.466Z,2891.25
2023-04-24T12:42:00.491Z,2283.75
2023-04-24T12:43:00.489Z,4455.00
2023-04-24T12:44:00.499Z,2446.88